Aviation Digital Data Service (ADDS)

Output produced by METARs form (2227 UTC 30 May 2015)
found at http://www.aviationweather.gov/adds/metars/
 
KEWR 302033Z 3021/3124 16011G18KT P6SM VCSH SCT045 
     FM310000 18010KT P6SM FEW045 SCT250 
     FM310400 21009KT P6SM SCT150 
     FM310800 21008KT 4SM BR VCSH SCT008 SCT060 BKN150 
     FM311000 21008KT 2SM BR VCSH BKN008 
     FM311400 20008KT P6SM VCSH SCT025 BKN060 
     FM311600 20008KT 4SM SHRA BKN045 
     PROB30 3116/3120 2SM TSRA BKN030CB 
     FM312000 14008KT 4SM SHRA BKN045 
     PROB30 3120/3124 2SM TSRA BKN030CB